sensor_id;sensor_type;location;lat;lon;timestamp;P1;durP1;ratioP1;P2;durP2;ratioP2
325;SDS011;150;52.352;14.058;2023-11-18T00:01:54;3.78;;;2.95;;
325;SDS011;150;52.352;14.058;2023-11-18T00:04:20;4.20;;;2.83;;
325;SDS011;150;52.352;14.058;2023-11-18T00:06:47;2.90;;;2.50;;
325;SDS011;150;52.352;14.058;2023-11-18T00:09:14;4.32;;;2.90;;
325;SDS011;150;52.352;14.058;2023-11-18T00:11:40;3.08;;;2.45;;
325;SDS011;150;52.352;14.058;2023-11-18T00:14:09;3.17;;;2.80;;
325;SDS011;150;52.352;14.058;2023-11-18T00:16:36;3.35;;;2.78;;
325;SDS011;150;52.352;14.058;2023-11-18T00:19:03;4.27;;;2.40;;
325;SDS011;150;52.352;14.058;2023-11-18T00:21:31;4.93;;;3.15;;
325;SDS011;150;52.352;14.058;2023-11-18T00:23:57;4.80;;;3.20;;
325;SDS011;150;52.352;14.058;2023-11-18T00:26:24;3.35;;;2.50;;
325;SDS011;150;52.352;14.058;2023-11-18T00:28:51;5.63;;;3.22;;
325;SDS011;150;52.352;14.058;2023-11-18T00:31:19;4.70;;;2.92;;
325;SDS011;150;52.352;14.058;2023-11-18T00:33:46;4.13;;;3.20;;
325;SDS011;150;52.352;14.058;2023-11-18T00:36:12;3.28;;;2.53;;
325;SDS011;150;52.352;14.058;2023-11-18T00:38:39;4.80;;;3.47;;
325;SDS011;150;52.352;14.058;2023-11-18T00:41:06;3.00;;;2.90;;
325;SDS011;150;52.352;14.058;2023-11-18T00:43:32;3.03;;;2.67;;
325;SDS011;150;52.352;14.058;2023-11-18T00:45:59;5.10;;;2.97;;
325;SDS011;150;52.352;14.058;2023-11-18T00:48:29;5.93;;;2.47;;
325;SDS011;150;52.352;14.058;2023-11-18T00:50:56;4.45;;;3.20;;
325;SDS011;150;52.352;14.058;2023-11-18T00:53:23;4.43;;;2.88;;
325;SDS011;150;52.352;14.058;2023-11-18T00:55:49;3.72;;;2.85;;
325;SDS011;150;52.352;14.058;2023-11-18T00:58:16;6.07;;;3.10;;
325;SDS011;150;52.352;14.058;2023-11-18T01:00:42;4.72;;;3.05;;
325;SDS011;150;52.352;14.058;2023-11-18T01:03:09;2.90;;;2.50;;
325;SDS011;150;52.352;14.058;2023-11-18T01:05:37;4.60;;;3.03;;
325;SDS011;150;52.352;14.058;2023-11-18T01:08:04;4.75;;;3.42;;
325;SDS011;150;52.352;14.058;2023-11-18T01:10:31;4.28;;;3.35;;
325;SDS011;150;52.352;14.058;2023-11-18T01:12:57;5.28;;;2.90;;
325;SDS011;150;52.352;14.058;2023-11-18T01:15:24;3.72;;;3.10;;
325;SDS011;150;52.352;14.058;2023-11-18T01:17:51;3.67;;;2.55;;
325;SDS011;150;52.352;14.058;2023-11-18T01:20:17;3.77;;;2.73;;
325;SDS011;150;52.352;14.058;2023-11-18T01:22:48;2.72;;;2.55;;
325;SDS011;150;52.352;14.058;2023-11-18T01:25:15;3.85;;;2.78;;
325;SDS011;150;52.352;14.058;2023-11-18T01:27:43;3.95;;;3.00;;
325;SDS011;150;52.352;14.058;2023-11-18T01:30:12;4.68;;;3.15;;
325;SDS011;150;52.352;14.058;2023-11-18T01:32:39;4.70;;;3.40;;
325;SDS011;150;52.352;14.058;2023-11-18T01:35:05;4.63;;;3.10;;
325;SDS011;150;52.352;14.058;2023-11-18T01:37:33;4.97;;;3.00;;
325;SDS011;150;52.352;14.058;2023-11-18T01:40:01;3.42;;;2.53;;
325;SDS011;150;52.352;14.058;2023-11-18T01:42:31;4.07;;;3.20;;
325;SDS011;150;52.352;14.058;2023-11-18T01:44:58;5.43;;;3.60;;
325;SDS011;150;52.352;14.058;2023-11-18T01:47:28;4.65;;;3.53;;
325;SDS011;150;52.352;14.058;2023-11-18T01:49:57;4.55;;;3.03;;
325;SDS011;150;52.352;14.058;2023-11-18T01:52:24;7.55;;;3.20;;
325;SDS011;150;52.352;14.058;2023-11-18T01:54:51;3.85;;;2.50;;
325;SDS011;150;52.352;14.058;2023-11-18T01:57:21;5.47;;;3.17;;
325;SDS011;150;52.352;14.058;2023-11-18T01:59:49;5.10;;;3.47;;
325;SDS011;150;52.352;14.058;2023-11-18T02:02:15;5.43;;;3.33;;
325;SDS011;150;52.352;14.058;2023-11-18T02:04:43;8.68;;;3.60;;
325;SDS011;150;52.352;14.058;2023-11-18T02:07:10;4.88;;;4.15;;
325;SDS011;150;52.352;14.058;2023-11-18T02:09:40;5.82;;;4.20;;
325;SDS011;150;52.352;14.058;2023-11-18T02:12:08;4.75;;;3.78;;
325;SDS011;150;52.352;14.058;2023-11-18T02:14:46;9.55;;;3.67;;
325;SDS011;150;52.352;14.058;2023-11-18T02:17:17;6.43;;;3.40;;
325;SDS011;150;52.352;14.058;2023-11-18T02:19:48;3.00;;;2.65;;
325;SDS011;150;52.352;14.058;2023-11-18T02:22:15;8.68;;;3.72;;
325;SDS011;150;52.352;14.058;2023-11-18T02:24:42;3.70;;;2.85;;
325;SDS011;150;52.352;14.058;2023-11-18T02:27:10;5.43;;;3.40;;
325;SDS011;150;52.352;14.058;2023-11-18T02:29:39;4.45;;;3.25;;
325;SDS011;150;52.352;14.058;2023-11-18T02:32:09;6.28;;;3.08;;
325;SDS011;150;52.352;14.058;2023-11-18T02:34:43;4.40;;;3.37;;
325;SDS011;150;52.352;14.058;2023-11-18T02:37:18;4.40;;;3.25;;
325;SDS011;150;52.352;14.058;2023-11-18T02:39:46;5.28;;;2.53;;
325;SDS011;150;52.352;14.058;2023-11-18T02:42:20;5.35;;;3.00;;
325;SDS011;150;52.352;14.058;2023-11-18T02:44:47;5.97;;;3.20;;
325;SDS011;150;52.352;14.058;2023-11-18T02:47:23;6.18;;;2.63;;
325;SDS011;150;52.352;14.058;2023-11-18T02:49:53;4.90;;;3.00;;
325;SDS011;150;52.352;14.058;2023-11-18T02:52:21;4.88;;;2.65;;
325;SDS011;150;52.352;14.058;2023-11-18T02:54:47;3.97;;;2.97;;
325;SDS011;150;52.352;14.058;2023-11-18T02:57:14;3.50;;;2.53;;
325;SDS011;150;52.352;14.058;2023-11-18T02:59:42;3.90;;;2.92;;
325;SDS011;150;52.352;14.058;2023-11-18T03:02:11;3.90;;;2.92;;
325;SDS011;150;52.352;14.058;2023-11-18T03:04:39;4.47;;;3.10;;
325;SDS011;150;52.352;14.058;2023-11-18T03:07:07;4.45;;;2.47;;
325;SDS011;150;52.352;14.058;2023-11-18T03:09:34;3.65;;;2.67;;
325;SDS011;150;52.352;14.058;2023-11-18T03:12:03;5.05;;;3.30;;
325;SDS011;150;52.352;14.058;2023-11-18T03:14:32;4.40;;;2.72;;
325;SDS011;150;52.352;14.058;2023-11-18T03:17:01;3.50;;;3.03;;
325;SDS011;150;52.352;14.058;2023-11-18T03:19:31;3.75;;;2.95;;
325;SDS011;150;52.352;14.058;2023-11-18T03:21:58;7.97;;;2.38;;
325;SDS011;150;52.352;14.058;2023-11-18T03:24:24;6.32;;;2.58;;
325;SDS011;150;52.352;14.058;2023-11-18T03:26:51;3.58;;;2.28;;
325;SDS011;150;52.352;14.058;2023-11-18T03:29:17;5.32;;;3.13;;
325;SDS011;150;52.352;14.058;2023-11-18T03:31:44;4.60;;;3.25;;
325;SDS011;150;52.352;14.058;2023-11-18T03:34:16;3.90;;;2.95;;
325;SDS011;150;52.352;14.058;2023-11-18T03:36:45;14.55;;;3.30;;
325;SDS011;150;52.352;14.058;2023-11-18T03:39:12;4.75;;;3.55;;
325;SDS011;150;52.352;14.058;2023-11-18T03:41:39;7.87;;;5.47;;
325;SDS011;150;52.352;14.058;2023-11-18T03:44:09;6.80;;;4.68;;
325;SDS011;150;52.352;14.058;2023-11-18T03:46:36;8.40;;;5.65;;
325;SDS011;150;52.352;14.058;2023-11-18T03:49:03;15.68;;;10.48;;
325;SDS011;150;52.352;14.058;2023-11-18T03:51:31;7.90;;;5.82;;
325;SDS011;150;52.352;14.058;2023-11-18T03:53:57;7.18;;;3.75;;
325;SDS011;150;52.352;14.058;2023-11-18T03:56:24;5.00;;;2.95;;
325;SDS011;150;52.352;14.058;2023-11-18T03:58:51;4.10;;;2.13;;
325;SDS011;150;52.352;14.058;2023-11-18T04:01:21;4.70;;;2.75;;
325;SDS011;150;52.352;14.058;2023-11-18T04:03:48;4.10;;;3.08;;
325;SDS011;150;52.352;14.058;2023-11-18T04:06:15;3.85;;;2.50;;
325;SDS011;150;52.352;14.058;2023-11-18T04:08:44;4.45;;;2.83;;
325;SDS011;150;52.352;14.058;2023-11-18T04:11:11;3.17;;;2.15;;
325;SDS011;150;52.352;14.058;2023-11-18T04:13:39;4.80;;;2.67;;
325;SDS011;150;52.352;14.058;2023-11-18T04:16:09;3.40;;;2.53;;
325;SDS011;150;52.352;14.058;2023-11-18T04:18:37;3.30;;;2.00;;
325;SDS011;150;52.352;14.058;2023-11-18T04:21:04;5.88;;;2.70;;
325;SDS011;150;52.352;14.058;2023-11-18T04:23:31;3.47;;;2.60;;
325;SDS011;150;52.352;14.058;2023-11-18T04:26:01;2.72;;;2.40;;
325;SDS011;150;52.352;14.058;2023-11-18T04:28:28;3.20;;;2.10;;
325;SDS011;150;52.352;14.058;2023-11-18T04:30:54;3.85;;;2.65;;
325;SDS011;150;52.352;14.058;2023-11-18T04:33:21;4.07;;;2.45;;
325;SDS011;150;52.352;14.058;2023-11-18T04:35:49;3.85;;;2.70;;
325;SDS011;150;52.352;14.058;2023-11-18T04:38:16;4.10;;;2.42;;
325;SDS011;150;52.352;14.058;2023-11-18T04:40:42;3.03;;;1.80;;
325;SDS011;150;52.352;14.058;2023-11-18T04:43:12;2.88;;;2.20;;
325;SDS011;150;52.352;14.058;2023-11-18T04:45:38;4.03;;;3.00;;
325;SDS011;150;52.352;14.058;2023-11-18T04:48:06;2.47;;;2.05;;
325;SDS011;150;52.352;14.058;2023-11-18T04:50:33;4.35;;;2.42;;
325;SDS011;150;52.352;14.058;2023-11-18T04:52:59;4.10;;;2.70;;
325;SDS011;150;52.352;14.058;2023-11-18T04:55:27;3.13;;;1.95;;
325;SDS011;150;52.352;14.058;2023-11-18T04:57:54;5.45;;;2.85;;
325;SDS011;150;52.352;14.058;2023-11-18T05:00:22;2.75;;;2.13;;
325;SDS011;150;52.352;14.058;2023-11-18T05:02:49;2.70;;;2.08;;
325;SDS011;150;52.352;14.058;2023-11-18T05:05:16;2.47;;;1.65;;
325;SDS011;150;52.352;14.058;2023-11-18T05:07:43;3.07;;;1.90;;
325;SDS011;150;52.352;14.058;2023-11-18T05:10:10;3.17;;;1.70;;
325;SDS011;150;52.352;14.058;2023-11-18T05:12:36;2.35;;;1.73;;
325;SDS011;150;52.352;14.058;2023-11-18T05:15:05;3.67;;;2.33;;
325;SDS011;150;52.352;14.058;2023-11-18T05:17:34;2.92;;;1.70;;
325;SDS011;150;52.352;14.058;2023-11-18T05:20:01;4.25;;;1.98;;
325;SDS011;150;52.352;14.058;2023-11-18T05:22:28;2.80;;;2.30;;
325;SDS011;150;52.352;14.058;2023-11-18T05:24:56;4.10;;;2.40;;
325;SDS011;150;52.352;14.058;2023-11-18T05:27:22;3.03;;;1.58;;
325;SDS011;150;52.352;14.058;2023-11-18T05:29:49;3.47;;;2.43;;
325;SDS011;150;52.352;14.058;2023-11-18T05:32:19;2.90;;;1.73;;
325;SDS011;150;52.352;14.058;2023-11-18T05:34:47;2.00;;;1.47;;
325;SDS011;150;52.352;14.058;2023-11-18T05:37:13;2.95;;;2.25;;
325;SDS011;150;52.352;14.058;2023-11-18T05:39:43;2.67;;;1.83;;
325;SDS011;150;52.352;14.058;2023-11-18T05:42:10;2.75;;;1.70;;
325;SDS011;150;52.352;14.058;2023-11-18T05:44:37;3.87;;;2.37;;
325;SDS011;150;52.352;14.058;2023-11-18T05:47:04;2.92;;;2.10;;
325;SDS011;150;52.352;14.058;2023-11-18T05:49:32;4.25;;;2.70;;
325;SDS011;150;52.352;14.058;2023-11-18T05:52:00;3.45;;;2.25;;
325;SDS011;150;52.352;14.058;2023-11-18T05:54:26;1.90;;;1.73;;
325;SDS011;150;52.352;14.058;2023-11-18T05:56:53;3.17;;;2.20;;
325;SDS011;150;52.352;14.058;2023-11-18T05:59:19;2.60;;;2.30;;
325;SDS011;150;52.352;14.058;2023-11-18T06:01:47;3.17;;;2.42;;
325;SDS011;150;52.352;14.058;2023-11-18T06:04:13;3.28;;;2.63;;
325;SDS011;150;52.352;14.058;2023-11-18T06:06:40;4.75;;;2.30;;
325;SDS011;150;52.352;14.058;2023-11-18T06:09:08;2.60;;;2.33;;
325;SDS011;150;52.352;14.058;2023-11-18T06:11:43;3.67;;;2.40;;
325;SDS011;150;52.352;14.058;2023-11-18T06:14:09;1.97;;;1.80;;
325;SDS011;150;52.352;14.058;2023-11-18T06:16:37;3.70;;;2.50;;
325;SDS011;150;52.352;14.058;2023-11-18T06:19:05;4.00;;;2.35;;
325;SDS011;150;52.352;14.058;2023-11-18T06:21:33;2.83;;;1.85;;
325;SDS011;150;52.352;14.058;2023-11-18T06:24:00;6.40;;;2.25;;
325;SDS011;150;52.352;14.058;2023-11-18T06:26:30;3.80;;;2.60;;
325;SDS011;150;52.352;14.058;2023-11-18T06:28:57;2.13;;;1.77;;
325;SDS011;150;52.352;14.058;2023-11-18T06:31:24;3.63;;;2.67;;
325;SDS011;150;52.352;14.058;2023-11-18T06:33:51;3.43;;;2.67;;
325;SDS011;150;52.352;14.058;2023-11-18T06:36:18;3.63;;;2.65;;
325;SDS011;150;52.352;14.058;2023-11-18T06:38:46;3.85;;;3.20;;
325;SDS011;150;52.352;14.058;2023-11-18T06:41:15;3.78;;;1.98;;
325;SDS011;150;52.352;14.058;2023-11-18T06:43:44;4.28;;;2.20;;
325;SDS011;150;52.352;14.058;2023-11-18T06:46:22;21.30;;;14.38;;
325;SDS011;150;52.352;14.058;2023-11-18T06:48:49;7.65;;;5.38;;
325;SDS011;150;52.352;14.058;2023-11-18T06:51:19;4.82;;;3.75;;
325;SDS011;150;52.352;14.058;2023-11-18T06:53:48;3.42;;;2.78;;
325;SDS011;150;52.352;14.058;2023-11-18T06:56:15;3.10;;;2.10;;
325;SDS011;150;52.352;14.058;2023-11-18T06:58:41;2.55;;;1.40;;
325;SDS011;150;52.352;14.058;2023-11-18T07:01:11;3.83;;;2.72;;
325;SDS011;150;52.352;14.058;2023-11-18T07:03:39;2.58;;;1.90;;
325;SDS011;150;52.352;14.058;2023-11-18T07:06:07;6.70;;;3.03;;
325;SDS011;150;52.352;14.058;2023-11-18T07:08:34;2.70;;;1.92;;
325;SDS011;150;52.352;14.058;2023-11-18T07:11:01;3.40;;;1.50;;
325;SDS011;150;52.352;14.058;2023-11-18T07:13:28;3.58;;;1.55;;
325;SDS011;150;52.352;14.058;2023-11-18T07:15:56;2.70;;;1.70;;
325;SDS011;150;52.352;14.058;2023-11-18T07:18:22;11.85;;;7.68;;
325;SDS011;150;52.352;14.058;2023-11-18T07:20:49;3.10;;;2.03;;
325;SDS011;150;52.352;14.058;2023-11-18T07:23:17;3.88;;;2.03;;
325;SDS011;150;52.352;14.058;2023-11-18T07:25:50;2.63;;;1.48;;
325;SDS011;150;52.352;14.058;2023-11-18T07:28:17;1.95;;;1.15;;
325;SDS011;150;52.352;14.058;2023-11-18T07:30:43;7.22;;;1.60;;
325;SDS011;150;52.352;14.058;2023-11-18T07:33:14;2.10;;;1.40;;
325;SDS011;150;52.352;14.058;2023-11-18T07:35:41;2.70;;;1.60;;
325;SDS011;150;52.352;14.058;2023-11-18T07:38:07;7.28;;;1.85;;
325;SDS011;150;52.352;14.058;2023-11-18T07:40:35;5.05;;;3.53;;
325;SDS011;150;52.352;14.058;2023-11-18T07:43:07;3.73;;;2.70;;
325;SDS011;150;52.352;14.058;2023-11-18T07:45:34;3.43;;;3.00;;
325;SDS011;150;52.352;14.058;2023-11-18T07:48:02;4.68;;;3.60;;
325;SDS011;150;52.352;14.058;2023-11-18T07:50:32;4.90;;;3.50;;
325;SDS011;150;52.352;14.058;2023-11-18T07:52:59;3.20;;;2.20;;
325;SDS011;150;52.352;14.058;2023-11-18T07:55:26;2.63;;;1.63;;
325;SDS011;150;52.352;14.058;2023-11-18T07:57:53;2.00;;;1.50;;
325;SDS011;150;52.352;14.058;2023-11-18T08:00:20;2.95;;;1.77;;
325;SDS011;150;52.352;14.058;2023-11-18T08:02:48;3.53;;;1.42;;
325;SDS011;150;52.352;14.058;2023-11-18T08:05:19;2.03;;;1.70;;
325;SDS011;150;52.352;14.058;2023-11-18T08:07:50;2.55;;;1.90;;
325;SDS011;150;52.352;14.058;2023-11-18T08:10:21;7.75;;;3.30;;
325;SDS011;150;52.352;14.058;2023-11-18T08:12:51;5.10;;;1.80;;
325;SDS011;150;52.352;14.058;2023-11-18T08:15:24;1.92;;;1.33;;
325;SDS011;150;52.352;14.058;2023-11-18T08:17:51;3.40;;;1.83;;
325;SDS011;150;52.352;14.058;2023-11-18T08:20:18;2.35;;;1.70;;
325;SDS011;150;52.352;14.058;2023-11-18T08:22:51;2.38;;;1.70;;
325;SDS011;150;52.352;14.058;2023-11-18T08:25:18;4.15;;;2.63;;
325;SDS011;150;52.352;14.058;2023-11-18T08:27:45;5.32;;;4.03;;
325;SDS011;150;52.352;14.058;2023-11-18T08:30:12;3.90;;;2.10;;
325;SDS011;150;52.352;14.058;2023-11-18T08:32:39;10.55;;;5.40;;
325;SDS011;150;52.352;14.058;2023-11-18T08:38:58;2.72;;;1.30;;
325;SDS011;150;52.352;14.058;2023-11-18T08:41:24;1.92;;;1.33;;
325;SDS011;150;52.352;14.058;2023-11-18T08:43:51;2.50;;;1.40;;
325;SDS011;150;52.352;14.058;2023-11-18T08:46:18;2.30;;;1.90;;
325;SDS011;150;52.352;14.058;2023-11-18T08:48:45;2.58;;;1.52;;
325;SDS011;150;52.352;14.058;2023-11-18T08:51:13;3.42;;;1.50;;
325;SDS011;150;52.352;14.058;2023-11-18T08:53:41;1.95;;;1.20;;
325;SDS011;150;52.352;14.058;2023-11-18T08:56:09;2.40;;;1.40;;
325;SDS011;150;52.352;14.058;2023-11-18T08:58:40;2.88;;;1.42;;
325;SDS011;150;52.352;14.058;2023-11-18T09:01:07;1.98;;;1.20;;
325;SDS011;150;52.352;14.058;2023-11-18T09:03:39;2.10;;;1.37;;
325;SDS011;150;52.352;14.058;2023-11-18T09:06:08;2.67;;;1.50;;
325;SDS011;150;52.352;14.058;2023-11-18T09:08:42;2.28;;;1.40;;
325;SDS011;150;52.352;14.058;2023-11-18T09:11:11;8.77;;;3.35;;
325;SDS011;150;52.352;14.058;2023-11-18T09:13:40;2.72;;;1.65;;
325;SDS011;150;52.352;14.058;2023-11-18T09:16:10;3.13;;;2.08;;
325;SDS011;150;52.352;14.058;2023-11-18T09:18:37;3.30;;;1.92;;
325;SDS011;150;52.352;14.058;2023-11-18T09:21:06;2.13;;;1.45;;
325;SDS011;150;52.352;14.058;2023-11-18T09:23:39;2.58;;;2.05;;
325;SDS011;150;52.352;14.058;2023-11-18T09:26:06;2.50;;;1.67;;
325;SDS011;150;52.352;14.058;2023-11-18T09:28:35;3.22;;;1.70;;
325;SDS011;150;52.352;14.058;2023-11-18T09:31:02;2.60;;;2.00;;
325;SDS011;150;52.352;14.058;2023-11-18T09:33:29;2.07;;;1.53;;
325;SDS011;150;52.352;14.058;2023-11-18T09:35:58;2.65;;;1.88;;
325;SDS011;150;52.352;14.058;2023-11-18T09:38:26;2.60;;;1.77;;
325;SDS011;150;52.352;14.058;2023-11-18T09:40:54;2.58;;;1.73;;
325;SDS011;150;52.352;14.058;2023-11-18T09:43:20;2.10;;;1.60;;
325;SDS011;150;52.352;14.058;2023-11-18T09:45:51;3.38;;;1.80;;
325;SDS011;150;52.352;14.058;2023-11-18T09:48:21;2.30;;;1.98;;
325;SDS011;150;52.352;14.058;2023-11-18T09:50:50;4.30;;;2.10;;
325;SDS011;150;52.352;14.058;2023-11-18T09:53:18;3.53;;;2.83;;
325;SDS011;150;52.352;14.058;2023-11-18T09:55:48;6.00;;;2.00;;
325;SDS011;150;52.352;14.058;2023-11-18T09:58:20;5.03;;;2.00;;
325;SDS011;150;52.352;14.058;2023-11-18T10:00:50;3.08;;;2.30;;
325;SDS011;150;52.352;14.058;2023-11-18T10:03:22;4.60;;;2.55;;
325;SDS011;150;52.352;14.058;2023-11-18T10:05:49;3.90;;;2.50;;
325;SDS011;150;52.352;14.058;2023-11-18T10:08:19;3.75;;;2.30;;
325;SDS011;150;52.352;14.058;2023-11-18T10:10:50;4.20;;;2.38;;
325;SDS011;150;52.352;14.058;2023-11-18T10:13:29;3.42;;;2.03;;
325;SDS011;150;52.352;14.058;2023-11-18T10:16:02;2.90;;;2.40;;
325;SDS011;150;52.352;14.058;2023-11-18T10:18:30;4.20;;;2.90;;
325;SDS011;150;52.352;14.058;2023-11-18T10:21:00;3.97;;;2.55;;
325;SDS011;150;52.352;14.058;2023-11-18T10:23:29;3.55;;;1.80;;
325;SDS011;150;52.352;14.058;2023-11-18T10:25:59;3.35;;;2.08;;
325;SDS011;150;52.352;14.058;2023-11-18T10:28:26;3.40;;;1.90;;
325;SDS011;150;52.352;14.058;2023-11-18T10:30:55;3.35;;;1.90;;
325;SDS011;150;52.352;14.058;2023-11-18T10:33:25;6.45;;;2.33;;
325;SDS011;150;52.352;14.058;2023-11-18T10:35:55;15.25;;;5.10;;
325;SDS011;150;52.352;14.058;2023-11-18T10:38:23;7.60;;;2.67;;
325;SDS011;150;52.352;14.058;2023-11-18T10:40:52;1.80;;;1.50;;
325;SDS011;150;52.352;14.058;2023-11-18T10:43:20;3.28;;;1.95;;
325;SDS011;150;52.352;14.058;2023-11-18T10:45:49;3.45;;;1.75;;
325;SDS011;150;52.352;14.058;2023-11-18T10:48:17;3.40;;;1.80;;
325;SDS011;150;52.352;14.058;2023-11-18T10:50:47;5.80;;;2.25;;
325;SDS011;150;52.352;14.058;2023-11-18T10:53:15;8.48;;;2.25;;
325;SDS011;150;52.352;14.058;2023-11-18T10:55:42;2.28;;;1.67;;
325;SDS011;150;52.352;14.058;2023-11-18T10:58:09;3.72;;;2.17;;
325;SDS011;150;52.352;14.058;2023-11-18T11:00:45;5.38;;;4.28;;
325;SDS011;150;52.352;14.058;2023-11-18T11:03:13;3.83;;;2.85;;
325;SDS011;150;52.352;14.058;2023-11-18T11:05:40;3.15;;;1.95;;
325;SDS011;150;52.352;14.058;2023-11-18T11:08:10;4.80;;;3.50;;
325;SDS011;150;52.352;14.058;2023-11-18T11:10:39;3.03;;;2.05;;
325;SDS011;150;52.352;14.058;2023-11-18T11:13:07;4.45;;;2.45;;
325;SDS011;150;52.352;14.058;2023-11-18T11:15:38;3.80;;;2.30;;
325;SDS011;150;52.352;14.058;2023-11-18T11:18:11;3.40;;;2.15;;
325;SDS011;150;52.352;14.058;2023-11-18T11:20:57;2.53;;;1.52;;
325;SDS011;150;52.352;14.058;2023-11-18T11:23:34;6.57;;;2.10;;
325;SDS011;150;52.352;14.058;2023-11-18T11:26:13;3.20;;;2.10;;
325;SDS011;150;52.352;14.058;2023-11-18T11:28:49;2.60;;;1.75;;
325;SDS011;150;52.352;14.058;2023-11-18T11:31:26;3.33;;;2.40;;
325;SDS011;150;52.352;14.058;2023-11-18T11:33:59;3.72;;;2.65;;
325;SDS011;150;52.352;14.058;2023-11-18T11:36:30;5.72;;;3.67;;
325;SDS011;150;52.352;14.058;2023-11-18T11:39:03;2.70;;;1.88;;
325;SDS011;150;52.352;14.058;2023-11-18T11:41:35;2.50;;;1.50;;
325;SDS011;150;52.352;14.058;2023-11-18T11:44:03;3.03;;;1.60;;
325;SDS011;150;52.352;14.058;2023-11-18T11:46:31;3.28;;;2.30;;
325;SDS011;150;52.352;14.058;2023-11-18T11:49:00;2.60;;;1.70;;
325;SDS011;150;52.352;14.058;2023-11-18T11:51:39;3.90;;;1.53;;
325;SDS011;150;52.352;14.058;2023-11-18T11:54:16;3.60;;;1.58;;
325;SDS011;150;52.352;14.058;2023-11-18T11:56:46;3.80;;;2.22;;
325;SDS011;150;52.352;14.058;2023-11-18T11:59:15;3.97;;;2.40;;
325;SDS011;150;52.352;14.058;2023-11-18T12:01:41;2.50;;;1.30;;
325;SDS011;150;52.352;14.058;2023-11-18T12:04:12;2.65;;;2.13;;
325;SDS011;150;52.352;14.058;2023-11-18T12:06:46;3.40;;;2.30;;
325;SDS011;150;52.352;14.058;2023-11-18T12:09:19;3.95;;;2.70;;
325;SDS011;150;52.352;14.058;2023-11-18T12:11:46;2.83;;;1.75;;
325;SDS011;150;52.352;14.058;2023-11-18T12:14:15;2.60;;;1.42;;
325;SDS011;150;52.352;14.058;2023-11-18T12:17:06;5.10;;;3.23;;
325;SDS011;150;52.352;14.058;2023-11-18T12:19:35;3.78;;;2.22;;
325;SDS011;150;52.352;14.058;2023-11-18T12:22:13;2.78;;;2.00;;
325;SDS011;150;52.352;14.058;2023-11-18T12:24:46;2.60;;;2.00;;
325;SDS011;150;52.352;14.058;2023-11-18T12:38:30;2.90;;;1.85;;
325;SDS011;150;52.352;14.058;2023-11-18T12:45:36;6.03;;;1.60;;
325;SDS011;150;52.352;14.058;2023-11-18T12:52:23;3.65;;;1.80;;
325;SDS011;150;52.352;14.058;2023-11-18T12:55:44;3.00;;;1.95;;
325;SDS011;150;52.352;14.058;2023-11-18T12:59:01;2.60;;;1.92;;
325;SDS011;150;52.352;14.058;2023-11-18T13:05:50;3.10;;;2.00;;
325;SDS011;150;52.352;14.058;2023-11-18T13:09:01;3.50;;;2.47;;
325;SDS011;150;52.352;14.058;2023-11-18T13:11:53;4.43;;;2.97;;
325;SDS011;150;52.352;14.058;2023-11-18T13:18:10;3.35;;;2.47;;
325;SDS011;150;52.352;14.058;2023-11-18T13:21:33;3.90;;;2.70;;
325;SDS011;150;52.352;14.058;2023-11-18T13:24:26;3.88;;;2.70;;
325;SDS011;150;52.352;14.058;2023-11-18T13:27:46;4.50;;;2.58;;
325;SDS011;150;52.352;14.058;2023-11-18T13:34:42;3.37;;;2.47;;
325;SDS011;150;52.352;14.058;2023-11-18T13:41:48;2.58;;;1.80;;
325;SDS011;150;52.352;14.058;2023-11-18T13:45:04;2.80;;;2.58;;
325;SDS011;150;52.352;14.058;2023-11-18T13:47:56;3.60;;;2.50;;
325;SDS011;150;52.352;14.058;2023-11-18T13:51:16;2.90;;;2.10;;
325;SDS011;150;52.352;14.058;2023-11-18T13:54:34;4.07;;;3.30;;
325;SDS011;150;52.352;14.058;2023-11-18T19:16:36;14.25;;;10.48;;
325;SDS011;150;52.352;14.058;2023-11-18T19:19:19;18.15;;;12.15;;
325;SDS011;150;52.352;14.058;2023-11-18T19:22:17;12.95;;;10.32;;
325;SDS011;150;52.352;14.058;2023-11-18T19:28:11;13.05;;;8.85;;
325;SDS011;150;52.352;14.058;2023-11-18T19:31:06;13.05;;;8.60;;
325;SDS011;150;52.352;14.058;2023-11-18T19:34:17;8.20;;;6.45;;
325;SDS011;150;52.352;14.058;2023-11-18T19:37:22;11.73;;;7.53;;
325;SDS011;150;52.352;14.058;2023-11-18T19:40:06;7.07;;;5.60;;
325;SDS011;150;52.352;14.058;2023-11-18T19:43:03;7.25;;;5.28;;
325;SDS011;150;52.352;14.058;2023-11-18T19:46:40;7.50;;;5.45;;
325;SDS011;150;52.352;14.058;2023-11-18T19:56:43;4.90;;;4.50;;
325;SDS011;150;52.352;14.058;2023-11-18T19:59:39;5.32;;;3.70;;
325;SDS011;150;52.352;14.058;2023-11-18T20:02:31;7.07;;;4.10;;
325;SDS011;150;52.352;14.058;2023-11-18T20:05:00;4.57;;;3.53;;
325;SDS011;150;52.352;14.058;2023-11-18T20:07:52;9.15;;;5.00;;
325;SDS011;150;52.352;14.058;2023-11-18T20:10:34;6.45;;;5.43;;
325;SDS011;150;52.352;14.058;2023-11-18T20:14:07;9.00;;;5.85;;
325;SDS011;150;52.352;14.058;2023-11-18T20:16:47;8.45;;;5.75;;
325;SDS011;150;52.352;14.058;2023-11-18T20:19:29;7.90;;;5.22;;
325;SDS011;150;52.352;14.058;2023-11-18T20:22:03;9.25;;;5.35;;
325;SDS011;150;52.352;14.058;2023-11-18T20:25:18;5.80;;;4.43;;
325;SDS011;150;52.352;14.058;2023-11-18T20:31:07;8.80;;;5.20;;
325;SDS011;150;52.352;14.058;2023-11-18T20:33:39;5.78;;;4.75;;
325;SDS011;150;52.352;14.058;2023-11-18T20:39:42;8.18;;;5.80;;
325;SDS011;150;52.352;14.058;2023-11-18T20:42:33;7.47;;;5.20;;
325;SDS011;150;52.352;14.058;2023-11-18T20:49:01;6.88;;;5.07;;
325;SDS011;150;52.352;14.058;2023-11-18T20:51:52;5.63;;;4.70;;
325;SDS011;150;52.352;14.058;2023-11-18T20:54:48;6.53;;;4.47;;
325;SDS011;150;52.352;14.058;2023-11-18T20:57:21;4.05;;;3.58;;
325;SDS011;150;52.352;14.058;2023-11-18T20:59:50;8.68;;;4.35;;
325;SDS011;150;52.352;14.058;2023-11-18T21:05:55;8.35;;;5.68;;
325;SDS011;150;52.352;14.058;2023-11-18T21:08:46;7.45;;;4.45;;
325;SDS011;150;52.352;14.058;2023-11-18T21:12:06;6.57;;;4.13;;
325;SDS011;150;52.352;14.058;2023-11-18T21:14:51;5.55;;;3.72;;
325;SDS011;150;52.352;14.058;2023-11-18T21:21:15;6.35;;;4.13;;
325;SDS011;150;52.352;14.058;2023-11-18T21:23:53;4.78;;;3.67;;
325;SDS011;150;52.352;14.058;2023-11-18T21:26:37;5.15;;;3.83;;
325;SDS011;150;52.352;14.058;2023-11-18T21:29:14;5.25;;;3.30;;
325;SDS011;150;52.352;14.058;2023-11-18T21:31:46;3.85;;;3.40;;
325;SDS011;150;52.352;14.058;2023-11-18T21:34:29;4.43;;;3.60;;
325;SDS011;150;52.352;14.058;2023-11-18T21:37:04;8.13;;;3.78;;
325;SDS011;150;52.352;14.058;2023-11-18T21:39:51;6.88;;;4.32;;
325;SDS011;150;52.352;14.058;2023-11-18T21:42:44;4.57;;;2.75;;
325;SDS011;150;52.352;14.058;2023-11-18T21:45:20;3.85;;;3.65;;
325;SDS011;150;52.352;14.058;2023-11-18T21:48:18;4.95;;;3.55;;
325;SDS011;150;52.352;14.058;2023-11-18T21:51:06;4.15;;;3.60;;
325;SDS011;150;52.352;14.058;2023-11-18T21:53:43;6.22;;;3.83;;
325;SDS011;150;52.352;14.058;2023-11-18T21:56:15;9.98;;;7.82;;
325;SDS011;150;52.352;14.058;2023-11-18T22:01:50;14.27;;;10.93;;
325;SDS011;150;52.352;14.058;2023-11-18T22:04:28;4.28;;;3.58;;
325;SDS011;150;52.352;14.058;2023-11-18T22:07:27;4.83;;;3.30;;
325;SDS011;150;52.352;14.058;2023-11-18T22:09:57;4.88;;;3.80;;
325;SDS011;150;52.352;14.058;2023-11-18T22:12:58;7.13;;;4.03;;
325;SDS011;150;52.352;14.058;2023-11-18T22:15:56;6.43;;;4.72;;
325;SDS011;150;52.352;14.058;2023-11-18T22:19:00;5.40;;;4.20;;
325;SDS011;150;52.352;14.058;2023-11-18T22:22:09;4.10;;;3.58;;
325;SDS011;150;52.352;14.058;2023-11-18T22:25:09;6.00;;;4.10;;
325;SDS011;150;52.352;14.058;2023-11-18T22:27:50;14.35;;;11.35;;
325;SDS011;150;52.352;14.058;2023-11-18T22:30:32;12.23;;;9.38;;
325;SDS011;150;52.352;14.058;2023-11-18T22:33:09;10.40;;;8.30;;
325;SDS011;150;52.352;14.058;2023-11-18T22:35:41;6.25;;;4.30;;
325;SDS011;150;52.352;14.058;2023-11-18T22:38:42;9.20;;;5.70;;